createdAt,value
2023-05-01T00:01:19.485Z,7.31
2023-05-01T00:03:19.489Z,7.31
2023-05-01T00:05:19.349Z,7.25
2023-05-01T00:07:19.350Z,7.25
2023-05-01T00:09:19.339Z,7.25
2023-05-01T00:11:19.356Z,7.19
2023-05-01T00:13:19.344Z,7.25
2023-05-01T00:15:19.343Z,7.19
2023-05-01T00:17:19.379Z,7.19
2023-05-01T00:19:19.351Z,7.19
2023-05-01T00:21:19.358Z,7.19
2023-05-01T00:23:19.341Z,7.12
2023-05-01T00:25:19.348Z,7.19
2023-05-01T00:27:19.365Z,7.12
2023-05-01T00:29:19.345Z,7.06
2023-05-01T00:31:19.374Z,7.06
2023-05-01T00:33:19.358Z,7.06
2023-05-01T00:35:19.348Z,7.00
2023-05-01T00:37:19.370Z,7.06
2023-05-01T00:39:19.345Z,7.06
2023-05-01T00:41:19.378Z,7.06
2023-05-01T00:43:19.362Z,7.06
2023-05-01T00:45:19.377Z,7.06
2023-05-01T00:47:19.408Z,7.06
2023-05-01T00:49:19.361Z,7.06
2023-05-01T00:51:19.368Z,7.06
2023-05-01T00:53:19.359Z,7.06
2023-05-01T00:55:19.366Z,7.00
2023-05-01T00:57:19.384Z,7.00
2023-05-01T00:59:19.353Z,7.00
2023-05-01T01:01:19.420Z,7.00
2023-05-01T01:03:19.350Z,7.00
2023-05-01T01:05:19.359Z,6.94
2023-05-01T01:07:19.371Z,7.00
2023-05-01T01:09:19.357Z,6.94
2023-05-01T01:11:19.376Z,6.88
2023-05-01T01:13:19.355Z,7.00
2023-05-01T01:15:19.354Z,6.94
2023-05-01T01:17:19.376Z,6.94
2023-05-01T01:19:19.358Z,6.94
2023-05-01T01:21:19.482Z,6.88
2023-05-01T01:23:19.362Z,6.88
2023-05-01T01:25:19.381Z,6.88
2023-05-01T01:27:19.355Z,6.94
2023-05-01T01:29:19.364Z,6.88
2023-05-01T01:31:19.443Z,6.88
2023-05-01T01:33:19.364Z,6.81
2023-05-01T01:35:19.366Z,6.81
2023-05-01T01:37:19.375Z,6.75
2023-05-01T01:39:19.363Z,6.81
2023-05-01T01:41:19.379Z,6.81
2023-05-01T01:43:19.370Z,6.81
2023-05-01T01:45:19.366Z,6.81
2023-05-01T01:47:19.378Z,6.75
2023-05-01T01:49:20.839Z,6.75
2023-05-01T01:51:19.376Z,6.75
2023-05-01T01:53:19.393Z,6.75
2023-05-01T01:55:19.360Z,6.69
2023-05-01T01:57:19.387Z,6.75
2023-05-01T01:59:19.368Z,6.69
2023-05-01T02:01:19.396Z,6.69
2023-05-01T02:03:19.437Z,6.69
2023-05-01T02:05:19.385Z,6.62
2023-05-01T02:07:19.379Z,6.62
2023-05-01T02:09:19.375Z,6.69
2023-05-01T02:11:19.395Z,6.69
2023-05-01T02:13:19.367Z,6.62
2023-05-01T02:15:19.407Z,6.69
2023-05-01T02:17:19.429Z,6.69
2023-05-01T02:19:19.381Z,6.75
2023-05-01T02:21:19.390Z,6.69
2023-05-01T02:23:19.368Z,6.62
2023-05-01T02:25:19.392Z,6.56
2023-05-01T02:27:19.386Z,6.62
2023-05-01T02:29:19.374Z,6.62
2023-05-01T02:31:19.421Z,6.62
2023-05-01T02:33:19.374Z,6.56
2023-05-01T02:35:19.397Z,6.62
2023-05-01T02:37:19.381Z,6.62
2023-05-01T02:39:19.374Z,6.62
2023-05-01T02:41:19.401Z,6.56
2023-05-01T02:43:19.383Z,6.56
2023-05-01T02:45:19.377Z,6.56
2023-05-01T02:47:19.440Z,6.50
2023-05-01T02:49:19.381Z,6.50
2023-05-01T02:51:19.392Z,6.50
2023-05-01T02:53:19.384Z,6.50
2023-05-01T02:55:19.403Z,6.50
2023-05-01T02:57:19.380Z,6.50
2023-05-01T02:59:19.375Z,6.44
2023-05-01T03:01:19.516Z,6.50
2023-05-01T03:03:19.439Z,6.50
2023-05-01T03:05:19.429Z,6.38
2023-05-01T03:07:19.383Z,6.44
2023-05-01T03:09:19.392Z,6.44
2023-05-01T03:11:19.409Z,6.38
2023-05-01T03:13:19.385Z,6.38
2023-05-01T03:15:19.406Z,6.38
2023-05-01T03:17:19.391Z,6.38
2023-05-01T03:19:19.392Z,6.31
2023-05-01T03:21:19.400Z,6.31
2023-05-01T03:23:19.386Z,6.31
2023-05-01T03:25:19.423Z,6.31
2023-05-01T03:27:19.389Z,6.38
2023-05-01T03:29:19.390Z,6.31
2023-05-01T03:31:19.405Z,6.31
2023-05-01T03:33:19.397Z,6.31
2023-05-01T03:35:19.484Z,6.31
2023-05-01T03:37:19.384Z,6.38
2023-05-01T03:39:19.389Z,6.38
2023-05-01T03:41:19.409Z,6.25
2023-05-01T03:43:19.389Z,6.25
2023-05-01T03:45:19.420Z,6.31
2023-05-01T03:47:19.387Z,6.25
2023-05-01T03:49:19.392Z,6.25
2023-05-01T03:51:19.418Z,6.25
2023-05-01T03:53:19.385Z,6.31
2023-05-01T03:55:19.400Z,6.25
2023-05-01T03:57:19.394Z,6.31
2023-05-01T03:59:19.390Z,6.31
2023-05-01T04:01:19.409Z,6.31
2023-05-01T04:03:19.421Z,6.31
2023-05-01T04:05:19.419Z,6.31
2023-05-01T04:07:19.390Z,6.31
2023-05-01T04:09:19.398Z,6.31
2023-05-01T04:11:19.419Z,6.31
2023-05-01T04:13:19.396Z,6.31
2023-05-01T04:15:19.414Z,6.25
2023-05-01T04:17:19.419Z,6.19
2023-05-01T04:19:19.396Z,6.25
2023-05-01T04:21:19.411Z,6.25
2023-05-01T04:23:19.395Z,6.25
2023-05-01T04:25:19.413Z,6.25
2023-05-01T04:27:19.404Z,6.25
2023-05-01T04:29:19.409Z,6.31
2023-05-01T04:31:19.467Z,6.19
2023-05-01T04:33:19.401Z,6.25
2023-05-01T04:35:19.441Z,6.25
2023-05-01T04:37:19.414Z,6.25
2023-05-01T04:39:19.390Z,6.25
2023-05-01T04:41:19.427Z,6.25
2023-05-01T04:43:19.396Z,6.31
2023-05-01T04:45:19.410Z,6.38
2023-05-01T04:47:19.394Z,6.31
2023-05-01T04:49:19.395Z,6.25
2023-05-01T04:51:19.413Z,6.31
2023-05-01T04:53:19.400Z,6.31
2023-05-01T04:55:19.417Z,6.25
2023-05-01T04:57:19.400Z,6.31
2023-05-01T04:59:19.400Z,6.38
2023-05-01T05:01:19.469Z,6.38
2023-05-01T05:03:19.500Z,6.38
2023-05-01T05:05:19.418Z,6.38
2023-05-01T05:07:19.407Z,6.44
2023-05-01T05:09:20.346Z,6.38
2023-05-01T05:11:19.423Z,6.44
2023-05-01T05:13:19.421Z,6.44
2023-05-01T05:15:19.426Z,6.44
2023-05-01T05:17:19.405Z,6.38
2023-05-01T05:19:19.405Z,6.44
2023-05-01T05:21:19.427Z,6.38
2023-05-01T05:23:19.455Z,6.50
2023-05-01T05:25:19.422Z,6.50
2023-05-01T05:27:19.403Z,6.56
2023-05-01T05:29:19.409Z,6.50
2023-05-01T05:31:19.419Z,6.50
2023-05-01T05:33:19.507Z,6.50
2023-05-01T05:35:19.425Z,6.56
2023-05-01T05:37:19.415Z,6.62
2023-05-01T05:39:19.404Z,6.56
2023-05-01T05:41:19.426Z,6.62
2023-05-01T05:43:19.413Z,6.56
2023-05-01T05:45:19.457Z,6.62
2023-05-01T05:47:19.415Z,6.62
2023-05-01T05:49:19.439Z,6.69
2023-05-01T05:51:19.476Z,6.69
2023-05-01T05:53:19.419Z,6.69
2023-05-01T05:55:19.434Z,6.69
2023-05-01T05:57:19.419Z,6.69
2023-05-01T05:59:19.440Z,6.69
2023-05-01T06:01:19.416Z,6.69
2023-05-01T06:03:19.531Z,6.81
2023-05-01T06:05:19.522Z,6.75
2023-05-01T06:07:19.436Z,6.81
2023-05-01T06:09:19.433Z,6.81
2023-05-01T06:11:19.435Z,6.81
2023-05-01T06:13:19.426Z,6.81
2023-05-01T06:15:19.451Z,6.81
2023-05-01T06:17:19.426Z,6.81
2023-05-01T06:19:19.494Z,6.88
2023-05-01T06:21:19.440Z,6.88
2023-05-01T06:23:19.454Z,6.88
2023-05-01T06:25:19.460Z,6.94
2023-05-01T06:27:19.432Z,6.94
2023-05-01T06:29:19.442Z,7.00
2023-05-01T06:31:19.461Z,6.94
2023-05-01T06:33:19.428Z,7.00
2023-05-01T06:35:19.442Z,7.12
2023-05-01T06:37:19.428Z,7.12
2023-05-01T06:39:19.454Z,7.12
2023-05-01T06:41:19.424Z,7.19
2023-05-01T06:43:19.441Z,7.19
2023-05-01T06:45:19.460Z,7.25
2023-05-01T06:47:19.438Z,7.25
2023-05-01T06:49:19.444Z,7.31
2023-05-01T06:51:19.432Z,7.25
2023-05-01T06:53:19.429Z,7.25
2023-05-01T06:55:19.458Z,7.31
2023-05-01T06:57:19.442Z,7.38
2023-05-01T06:59:19.447Z,7.38
2023-05-01T07:01:19.558Z,7.44
2023-05-01T07:03:19.559Z,7.44
2023-05-01T07:05:19.448Z,7.44
2023-05-01T07:07:19.444Z,7.50
2023-05-01T07:09:19.451Z,7.50
2023-05-01T07:11:19.437Z,7.56
2023-05-01T07:13:19.546Z,7.62
2023-05-01T07:15:19.490Z,7.62
2023-05-01T07:17:19.478Z,7.62
2023-05-01T07:19:19.464Z,7.69
2023-05-01T07:21:19.439Z,7.69
2023-05-01T07:23:19.446Z,7.69
2023-05-01T07:25:19.469Z,7.81
2023-05-01T07:27:19.457Z,7.88
2023-05-01T07:29:19.486Z,7.94
2023-05-01T07:31:19.494Z,8.00
2023-05-01T07:33:19.500Z,8.06
2023-05-01T07:35:19.466Z,8.06
2023-05-01T07:37:19.447Z,8.06
2023-05-01T07:39:19.463Z,8.12
2023-05-01T07:41:19.456Z,8.12
2023-05-01T07:43:19.465Z,8.19
2023-05-01T07:45:19.470Z,8.25
2023-05-01T07:47:19.488Z,8.31
2023-05-01T07:49:19.464Z,8.44
2023-05-01T07:51:19.486Z,8.50
2023-05-01T07:53:19.451Z,8.50
2023-05-01T07:55:19.468Z,8.50
2023-05-01T07:57:19.460Z,8.50
2023-05-01T07:59:19.486Z,8.56
2023-05-01T08:01:19.461Z,8.56
2023-05-01T08:03:19.783Z,8.62
2023-05-01T08:05:19.504Z,8.62
2023-05-01T08:07:19.504Z,8.75
2023-05-01T08:09:19.520Z,8.75
2023-05-01T08:11:19.474Z,8.75
2023-05-01T08:13:19.463Z,8.81
2023-05-01T08:15:19.480Z,8.81
2023-05-01T08:17:19.494Z,8.88
2023-05-01T08:19:19.636Z,8.88
2023-05-01T08:21:19.465Z,8.94
2023-05-01T08:23:19.468Z,9.00
2023-05-01T08:25:19.524Z,9.12
2023-05-01T08:27:19.477Z,9.19
2023-05-01T08:29:19.493Z,9.25
2023-05-01T08:31:19.535Z,9.31
2023-05-01T08:33:19.472Z,9.25
2023-05-01T08:35:19.494Z,9.38
2023-05-01T08:37:19.470Z,9.38
2023-05-01T08:39:19.511Z,9.44
2023-05-01T08:41:19.471Z,9.44
2023-05-01T08:43:19.477Z,9.50
2023-05-01T08:45:19.501Z,9.44
2023-05-01T08:47:19.488Z,9.50
2023-05-01T08:49:19.498Z,9.50
2023-05-01T08:51:21.177Z,9.50
2023-05-01T08:53:19.482Z,9.50
2023-05-01T08:55:19.579Z,9.56
2023-05-01T08:57:19.511Z,9.56
2023-05-01T08:59:19.493Z,9.62
2023-05-01T09:01:19.826Z,9.62
2023-05-01T09:03:19.603Z,9.69
2023-05-01T09:05:19.588Z,9.75
2023-05-01T09:07:19.497Z,9.88
2023-05-01T09:09:19.505Z,9.88
2023-05-01T09:11:19.486Z,9.81
2023-05-01T09:13:19.488Z,9.88
2023-05-01T09:15:19.600Z,9.94
2023-05-01T09:17:19.544Z,9.81
2023-05-01T09:19:19.526Z,10.00
2023-05-01T09:21:19.516Z,10.00
2023-05-01T09:23:19.499Z,10.00
2023-05-01T09:25:19.509Z,10.00
2023-05-01T09:27:19.517Z,10.06
2023-05-01T09:29:19.511Z,10.06
2023-05-01T09:31:19.542Z,10.12
2023-05-01T09:33:19.574Z,10.00
2023-05-01T09:35:19.519Z,10.00
2023-05-01T09:37:19.498Z,9.94
2023-05-01T09:39:19.742Z,9.88
2023-05-01T09:41:19.508Z,9.88
2023-05-01T09:43:19.502Z,9.88
2023-05-01T09:45:19.519Z,9.94
2023-05-01T09:47:19.509Z,9.94
2023-05-01T09:49:19.534Z,9.94
2023-05-01T09:51:19.519Z,10.00
2023-05-01T09:53:19.558Z,9.94
2023-05-01T09:55:19.566Z,10.00
2023-05-01T09:57:19.518Z,10.00
2023-05-01T09:59:19.527Z,10.06
2023-05-01T10:01:19.669Z,10.12
2023-05-01T10:03:19.624Z,10.12
2023-05-01T10:05:19.569Z,10.19
2023-05-01T10:07:19.535Z,10.25
2023-05-01T10:09:19.550Z,10.25
2023-05-01T10:11:19.552Z,10.25
2023-05-01T10:13:19.525Z,10.38
2023-05-01T10:15:25.522Z,10.38
2023-05-01T10:17:19.648Z,10.38
2023-05-01T10:19:19.547Z,10.44
2023-05-01T10:21:19.568Z,10.44
2023-05-01T10:23:19.529Z,10.38
2023-05-01T10:25:19.639Z,10.50
2023-05-01T10:27:19.558Z,10.50
2023-05-01T10:29:19.554Z,10.50
2023-05-01T10:31:19.621Z,10.44
2023-05-01T10:33:19.621Z,10.44
2023-05-01T10:35:19.544Z,10.38
2023-05-01T10:37:19.547Z,10.44
2023-05-01T10:39:19.545Z,10.44
2023-05-01T10:41:19.534Z,10.44
2023-05-01T10:43:19.592Z,17.38
2023-05-01T10:45:19.562Z,14.19
2023-05-01T10:47:19.607Z,14.00
2023-05-01T10:49:19.560Z,13.38
2023-05-01T10:51:19.569Z,13.12
2023-05-01T10:53:19.561Z,12.81
2023-05-01T10:55:19.571Z,12.88
2023-05-01T10:57:19.545Z,12.25
2023-05-01T10:59:19.572Z,12.38
2023-05-01T11:01:19.630Z,12.12
2023-05-01T11:03:19.557Z,12.19
2023-05-01T11:05:28.891Z,12.19
2023-05-01T11:07:19.711Z,12.06
2023-05-01T11:09:19.572Z,12.19
2023-05-01T11:11:19.564Z,12.19
2023-05-01T11:13:19.555Z,12.19
2023-05-01T11:15:19.580Z,12.19
2023-05-01T11:17:19.570Z,12.19
2023-05-01T11:19:19.594Z,12.19
2023-05-01T11:21:19.572Z,12.25
2023-05-01T11:23:19.573Z,12.19
2023-05-01T11:25:19.576Z,12.25
2023-05-01T11:27:19.555Z,12.25
2023-05-01T11:29:19.677Z,12.25
2023-05-01T11:31:19.621Z,12.25
2023-05-01T11:33:19.607Z,12.25
2023-05-01T11:35:19.615Z,12.25
2023-05-01T11:37:19.590Z,12.19
2023-05-01T11:39:19.634Z,12.25
2023-05-01T11:41:20.341Z,12.25
2023-05-01T11:43:19.637Z,12.31
2023-05-01T11:45:19.637Z,12.25
2023-05-01T11:47:19.585Z,12.25
2023-05-01T11:49:19.585Z,12.31
2023-05-01T11:51:19.634Z,12.31
2023-05-01T11:53:19.600Z,12.31
2023-05-01T11:55:19.620Z,12.38
2023-05-01T11:57:19.575Z,12.38
2023-05-01T11:59:19.616Z,12.44
2023-05-01T12:01:22.759Z,12.50
2023-05-01T12:03:20.040Z,12.50
2023-05-01T12:05:19.609Z,12.56
2023-05-01T12:07:19.594Z,12.56
2023-05-01T12:09:19.608Z,12.56
2023-05-01T12:11:19.593Z,12.56
2023-05-01T12:13:19.585Z,12.62
2023-05-01T12:15:19.608Z,12.62
2023-05-01T12:17:19.712Z,12.62
2023-05-01T12:19:21.709Z,12.62
2023-05-01T12:21:19.588Z,12.56
2023-05-01T12:23:19.604Z,12.75
2023-05-01T12:25:19.658Z,12.69
2023-05-01T12:27:19.599Z,12.62
2023-05-01T12:29:19.621Z,12.62
2023-05-01T12:31:19.654Z,12.69
2023-05-01T12:33:19.863Z,12.75
2023-05-01T12:35:19.640Z,12.69
2023-05-01T12:37:19.656Z,12.75
2023-05-01T12:39:19.636Z,12.75
2023-05-01T12:41:19.618Z,12.75
2023-05-01T12:43:19.613Z,12.75
2023-05-01T12:45:19.640Z,12.75
2023-05-01T12:47:19.622Z,12.81
2023-05-01T12:49:19.632Z,12.75
2023-05-01T12:51:19.623Z,12.75
2023-05-01T12:53:19.913Z,12.81
2023-05-01T12:55:19.625Z,12.81
2023-05-01T12:57:19.632Z,12.88
2023-05-01T12:59:19.658Z,12.88
2023-05-01T13:01:19.676Z,12.81
2023-05-01T13:03:19.748Z,12.88
2023-05-01T13:05:19.648Z,12.94
2023-05-01T13:07:19.694Z,12.94
2023-05-01T13:09:19.637Z,12.94
2023-05-01T13:11:19.633Z,13.00
2023-05-01T13:13:19.629Z,13.00
2023-05-01T13:15:19.648Z,12.94
2023-05-01T13:17:19.659Z,12.94
2023-05-01T13:19:19.672Z,13.00
2023-05-01T13:21:19.636Z,13.00
2023-05-01T13:23:19.722Z,13.06
2023-05-01T13:25:19.694Z,13.00
2023-05-01T13:27:19.650Z,13.06
2023-05-01T13:29:19.658Z,13.12
2023-05-01T13:31:19.698Z,13.06
2023-05-01T13:33:19.669Z,13.12
2023-05-01T13:35:19.656Z,13.06
2023-05-01T13:37:19.637Z,13.12
2023-05-01T13:39:20.995Z,13.12
2023-05-01T13:41:19.649Z,13.12
2023-05-01T13:43:19.649Z,13.19
2023-05-01T13:45:19.677Z,13.19
2023-05-01T13:47:19.681Z,13.19
2023-05-01T13:49:19.655Z,13.25
2023-05-01T13:51:19.645Z,13.25
2023-05-01T13:53:19.653Z,13.19
2023-05-01T13:55:19.672Z,13.25
2023-05-01T13:57:19.657Z,13.19
2023-05-01T13:59:19.666Z,13.19
2023-05-01T14:01:19.734Z,13.19
2023-05-01T14:03:19.682Z,13.25
2023-05-01T14:05:19.664Z,13.31
2023-05-01T14:07:19.668Z,13.31
2023-05-01T14:09:19.671Z,13.38
2023-05-01T14:11:19.675Z,13.38
2023-05-01T14:13:19.673Z,13.38
2023-05-01T14:15:19.663Z,13.31
2023-05-01T14:17:19.720Z,13.44
2023-05-01T14:19:19.687Z,13.38
2023-05-01T14:21:19.663Z,13.31
2023-05-01T14:23:19.680Z,13.38
2023-05-01T14:25:19.667Z,13.38
2023-05-01T14:27:19.673Z,13.50
2023-05-01T14:29:19.691Z,13.44
2023-05-01T14:31:19.706Z,13.50
2023-05-01T14:33:19.697Z,13.50
2023-05-01T14:35:19.681Z,13.50
2023-05-01T14:37:19.677Z,13.44
2023-05-01T14:39:19.722Z,13.50
2023-05-01T14:41:19.680Z,13.50
2023-05-01T14:43:19.715Z,13.50
2023-05-01T14:45:19.702Z,13.50
2023-05-01T14:47:19.739Z,13.50
2023-05-01T14:49:19.709Z,13.50
2023-05-01T14:51:19.717Z,13.50
2023-05-01T14:53:19.726Z,13.50
2023-05-01T14:55:19.702Z,13.62
2023-05-01T14:57:19.704Z,13.62
2023-05-01T14:59:19.724Z,13.62
2023-05-01T15:01:19.916Z,13.62
2023-05-01T15:03:19.794Z,13.56
2023-05-01T15:05:19.723Z,13.62
2023-05-01T15:07:19.721Z,13.62
2023-05-01T15:09:19.777Z,13.62
2023-05-01T15:11:19.722Z,13.56
2023-05-01T15:13:19.773Z,13.56
2023-05-01T15:15:19.721Z,13.62
2023-05-01T15:17:19.763Z,13.62
2023-05-01T15:19:19.739Z,13.62
2023-05-01T15:21:19.736Z,13.62
2023-05-01T15:23:19.744Z,13.62
2023-05-01T15:25:19.745Z,13.62
2023-05-01T15:27:19.737Z,13.62
2023-05-01T15:29:19.768Z,13.62
2023-05-01T15:31:19.823Z,13.69
2023-05-01T15:33:19.793Z,13.62
2023-05-01T15:35:19.733Z,13.62
2023-05-01T15:37:19.736Z,13.69
2023-05-01T15:39:19.805Z,13.69
2023-05-01T15:41:19.773Z,13.75
2023-05-01T15:43:19.896Z,13.88
2023-05-01T15:45:19.855Z,14.00
2023-05-01T15:47:19.878Z,14.00
2023-05-01T15:49:19.902Z,14.06
2023-05-01T15:51:19.942Z,14.12
2023-05-01T15:53:19.875Z,14.19
2023-05-01T15:55:20.012Z,14.25
2023-05-01T15:57:19.801Z,14.25
2023-05-01T15:59:22.589Z,14.25
2023-05-01T16:01:19.940Z,14.31
2023-05-01T16:03:20.149Z,14.31
2023-05-01T16:05:19.847Z,14.31
2023-05-01T16:07:19.820Z,14.44
2023-05-01T16:09:19.854Z,14.44
2023-05-01T16:11:19.844Z,14.44
2023-05-01T16:13:19.808Z,14.56
2023-05-01T16:15:19.759Z,14.56
2023-05-01T16:17:19.827Z,14.62
2023-05-01T16:19:19.933Z,14.69
2023-05-01T16:21:20.126Z,14.69
2023-05-01T16:23:19.904Z,14.62
2023-05-01T16:25:19.774Z,14.75
2023-05-01T16:27:23.869Z,14.75
2023-05-01T16:29:19.797Z,14.81
2023-05-01T16:31:27.107Z,14.75
2023-05-01T16:33:19.931Z,14.88
2023-05-01T16:35:19.918Z,14.88
2023-05-01T16:37:19.817Z,14.88
2023-05-01T16:39:19.888Z,14.94
2023-05-01T16:41:19.825Z,14.94
2023-05-01T16:43:19.962Z,14.94
2023-05-01T16:45:19.797Z,15.00
2023-05-01T16:47:19.902Z,14.94
2023-05-01T16:49:19.810Z,15.06
2023-05-01T16:51:19.942Z,15.06
2023-05-01T16:53:19.963Z,15.12
2023-05-01T16:55:19.876Z,15.12
2023-05-01T16:57:19.927Z,15.06
2023-05-01T16:59:19.954Z,15.12
2023-05-01T17:01:19.948Z,15.12
2023-05-01T17:03:19.989Z,15.06
2023-05-01T17:05:19.801Z,15.12
2023-05-01T17:07:19.997Z,15.12
2023-05-01T17:09:19.814Z,15.19
2023-05-01T17:11:19.830Z,15.06
2023-05-01T17:13:19.824Z,15.12
2023-05-01T17:15:19.945Z,15.06
2023-05-01T17:17:19.847Z,15.06
2023-05-01T17:19:19.927Z,15.06
2023-05-01T17:21:19.930Z,15.06
2023-05-01T17:23:22.827Z,15.12
2023-05-01T17:25:19.808Z,15.06
2023-05-01T17:27:19.943Z,15.06
2023-05-01T17:29:19.819Z,15.06
2023-05-01T17:31:21.189Z,15.12
2023-05-01T17:33:19.895Z,15.12
2023-05-01T17:35:19.998Z,15.06
2023-05-01T17:37:19.943Z,15.06
2023-05-01T17:39:20.072Z,15.06
2023-05-01T17:41:19.911Z,15.00
2023-05-01T17:43:20.149Z,15.00
2023-05-01T17:45:19.886Z,15.00
2023-05-01T17:47:20.030Z,15.00
2023-05-01T17:49:19.910Z,15.00
2023-05-01T17:51:19.869Z,15.00
2023-05-01T17:53:20.037Z,14.94
2023-05-01T17:55:19.962Z,14.88
2023-05-01T17:57:19.883Z,14.88
2023-05-01T17:59:20.041Z,14.88
2023-05-01T18:01:19.943Z,14.81
2023-05-01T18:03:19.946Z,14.81
2023-05-01T18:05:19.822Z,14.81
2023-05-01T18:07:19.841Z,14.75
2023-05-01T18:09:19.847Z,14.75
2023-05-01T18:11:19.823Z,14.69
2023-05-01T18:13:19.877Z,14.69
2023-05-01T18:15:22.847Z,14.69
2023-05-01T18:17:19.845Z,14.62
2023-05-01T18:19:19.828Z,14.62
2023-05-01T18:21:19.836Z,14.62
2023-05-01T18:23:19.840Z,14.56
2023-05-01T18:25:19.831Z,14.56
2023-05-01T18:27:19.847Z,14.50
2023-05-01T18:29:19.841Z,14.44
2023-05-01T18:31:19.877Z,14.44
2023-05-01T18:33:19.900Z,14.38
2023-05-01T18:35:19.874Z,14.38
2023-05-01T18:37:19.872Z,14.38
2023-05-01T18:39:19.856Z,14.25
2023-05-01T18:41:19.864Z,14.25
2023-05-01T18:43:19.897Z,14.25
2023-05-01T18:45:19.859Z,14.19
2023-05-01T18:47:19.862Z,14.19
2023-05-01T18:49:19.894Z,14.19
2023-05-01T18:51:19.852Z,14.06
2023-05-01T18:53:19.865Z,14.06
2023-05-01T18:55:19.860Z,14.00
2023-05-01T18:57:19.861Z,13.94
2023-05-01T18:59:19.969Z,13.94
2023-05-01T19:01:19.886Z,13.94
2023-05-01T19:03:19.875Z,13.81
2023-05-01T19:05:19.999Z,13.88
2023-05-01T19:07:19.880Z,13.81
2023-05-01T19:09:19.857Z,13.81
2023-05-01T19:11:19.863Z,13.75
2023-05-01T19:13:19.948Z,13.75
2023-05-01T19:15:19.965Z,13.75
2023-05-01T19:17:20.123Z,13.62
2023-05-01T19:19:19.851Z,13.69
2023-05-01T19:21:19.862Z,13.62
2023-05-01T19:23:19.882Z,13.56
2023-05-01T19:25:19.861Z,13.50
2023-05-01T19:27:19.878Z,13.50
2023-05-01T19:29:19.862Z,13.50
2023-05-01T19:31:19.971Z,13.50
2023-05-01T19:33:19.984Z,13.50
2023-05-01T19:35:19.864Z,13.50
2023-05-01T19:37:19.882Z,13.38
2023-05-01T19:39:19.877Z,13.31
2023-05-01T19:41:19.880Z,13.31
2023-05-01T19:43:19.882Z,13.31
2023-05-01T19:45:19.871Z,13.25
2023-05-01T19:47:19.948Z,13.25
2023-05-01T19:49:19.880Z,13.12
2023-05-01T19:51:19.874Z,13.19
2023-05-01T19:53:19.890Z,13.12
2023-05-01T19:55:19.880Z,13.12
2023-05-01T19:57:19.947Z,13.06
2023-05-01T19:59:19.875Z,13.06
2023-05-01T20:01:20.044Z,13.06
2023-05-01T20:03:20.024Z,12.94
2023-05-01T20:05:19.879Z,12.88
2023-05-01T20:07:19.924Z,12.88
2023-05-01T20:09:19.884Z,12.88
2023-05-01T20:11:19.959Z,12.81
2023-05-01T20:13:19.909Z,12.88
2023-05-01T20:15:19.880Z,12.75
2023-05-01T20:17:20.002Z,12.75
2023-05-01T20:19:20.006Z,12.69
2023-05-01T20:21:19.889Z,12.75
2023-05-01T20:23:20.139Z,12.69
2023-05-01T20:25:19.979Z,12.62
2023-05-01T20:27:19.955Z,12.56
2023-05-01T20:29:19.900Z,12.62
2023-05-01T20:31:19.932Z,12.56
2023-05-01T20:33:19.910Z,12.50
2023-05-01T20:35:19.926Z,12.50
2023-05-01T20:37:19.910Z,12.44
2023-05-01T20:39:19.889Z,12.44
2023-05-01T20:41:19.896Z,12.44
2023-05-01T20:43:19.914Z,12.38
2023-05-01T20:45:19.909Z,12.31
2023-05-01T20:47:19.914Z,12.38
2023-05-01T20:49:19.898Z,12.31
2023-05-01T20:51:19.894Z,12.25
2023-05-01T20:53:19.909Z,12.25
2023-05-01T20:55:19.907Z,12.19
2023-05-01T20:57:19.941Z,12.19
2023-05-01T20:59:19.897Z,12.12
2023-05-01T21:01:19.967Z,12.19
2023-05-01T21:03:19.992Z,12.12
2023-05-01T21:05:19.907Z,12.12
2023-05-01T21:07:19.913Z,12.06
2023-05-01T21:09:19.930Z,12.06
2023-05-01T21:11:19.901Z,12.06
2023-05-01T21:13:19.920Z,12.00
2023-05-01T21:15:19.908Z,12.00
2023-05-01T21:17:19.922Z,11.94
2023-05-01T21:19:19.918Z,11.94
2023-05-01T21:21:19.912Z,11.94
2023-05-01T21:23:19.918Z,11.88
2023-05-01T21:25:19.917Z,11.88
2023-05-01T21:27:19.923Z,11.81
2023-05-01T21:29:19.929Z,11.81
2023-05-01T21:31:19.965Z,11.81
2023-05-01T21:33:19.996Z,11.75
2023-05-01T21:35:20.740Z,11.75
2023-05-01T21:37:19.938Z,11.75
2023-05-01T21:39:19.917Z,11.75
2023-05-01T21:41:19.929Z,11.75
2023-05-01T21:43:19.961Z,11.69
2023-05-01T21:45:19.926Z,11.62
2023-05-01T21:47:19.984Z,11.69
2023-05-01T21:49:19.925Z,11.62
2023-05-01T21:51:19.921Z,11.62
2023-05-01T21:53:19.954Z,11.56
2023-05-01T21:55:19.960Z,11.56
2023-05-01T21:57:19.953Z,11.62
2023-05-01T21:59:19.945Z,11.56
2023-05-01T22:01:19.977Z,11.56
2023-05-01T22:03:20.125Z,11.50
2023-05-01T22:05:19.930Z,11.50
2023-05-01T22:07:19.957Z,11.50
2023-05-01T22:09:19.934Z,11.50
2023-05-01T22:11:19.953Z,11.44
2023-05-01T22:13:19.956Z,11.44
2023-05-01T22:15:19.943Z,11.44
2023-05-01T22:17:19.969Z,11.31
2023-05-01T22:19:19.934Z,11.31
2023-05-01T22:21:19.937Z,11.31
2023-05-01T22:23:19.952Z,11.31
2023-05-01T22:25:19.934Z,11.31
2023-05-01T22:27:19.970Z,11.31
2023-05-01T22:29:19.950Z,11.31
2023-05-01T22:31:20.019Z,11.31
2023-05-01T22:33:19.960Z,11.31
2023-05-01T22:35:19.964Z,11.31
2023-05-01T22:37:19.956Z,11.31
2023-05-01T22:39:19.943Z,11.25
2023-05-01T22:41:19.987Z,11.31
2023-05-01T22:43:19.971Z,11.25
2023-05-01T22:45:19.960Z,11.25
2023-05-01T22:47:19.970Z,11.19
2023-05-01T22:49:19.981Z,11.25
2023-05-01T22:51:19.966Z,11.19
2023-05-01T22:53:19.969Z,11.19
2023-05-01T22:55:19.963Z,11.19
2023-05-01T22:57:20.063Z,11.19
2023-05-01T22:59:19.958Z,11.19
2023-05-01T23:01:20.053Z,11.12
2023-05-01T23:03:20.102Z,11.12
2023-05-01T23:05:19.969Z,11.12
2023-05-01T23:07:19.985Z,11.12
2023-05-01T23:09:19.959Z,11.06
2023-05-01T23:11:19.956Z,11.12
2023-05-01T23:13:20.044Z,11.06
2023-05-01T23:15:19.963Z,11.06
2023-05-01T23:17:20.002Z,11.06
2023-05-01T23:19:19.959Z,11.06
2023-05-01T23:21:19.959Z,11.00
2023-05-01T23:23:19.977Z,11.00
2023-05-01T23:25:19.958Z,11.00
2023-05-01T23:27:20.136Z,11.00
2023-05-01T23:29:19.960Z,11.00
2023-05-01T23:31:20.022Z,11.00
2023-05-01T23:33:21.545Z,11.00
2023-05-01T23:35:19.970Z,11.00
2023-05-01T23:37:19.978Z,10.94
2023-05-01T23:39:19.969Z,11.00
2023-05-01T23:41:20.161Z,10.94
2023-05-01T23:43:19.984Z,10.94
2023-05-01T23:45:19.975Z,11.00
2023-05-01T23:47:19.987Z,10.94
2023-05-01T23:49:19.980Z,10.94
2023-05-01T23:51:19.979Z,10.94
2023-05-01T23:53:19.994Z,10.94
2023-05-01T23:55:19.981Z,10.88
2023-05-01T23:57:19.988Z,10.88
2023-05-01T23:59:19.979Z,10.94
